Home   Weather   USA   Cadillac   Past weeks
Flag for USA

Past Weather in Cadillac, Michigan, USA — Yesterday and Last 2 Weeks

Currently: 68 °F. Low clouds. (Weather station: Cadillac / Wexford County, USA). See more current weather

Past Weather in Cadillac — Graph

°F

Cadillac Temperature Yesterday

Maximum temperature yesterday: 75 °F (at 6:55 pm)
Minimum temperature yesterday: 68 °F (at 12:15 am)
Average temperature yesterday: 71 °F

High & Low Weather Summary for the Past Weeks

 TemperatureHumidityPressure
High90 °F (Jun 17, 3:15 pm)100% (Jun 8, 2:15 am)30.36 "Hg (Jun 8, 2:15 am)
Low36 °F (Jun 11, 4:15 am)31% (Jun 14, 2:15 pm)29.59 "Hg (Jun 23, 2:55 am)
Average67 °F72%29.98 "Hg
* Reported Jun 8 2:15 am — Jun 23 2:55 am, Cadillac. Weather by CustomWeather, © 2024

Note: Actual official high and low records may vary slightly from our data, if they occured in-between our weather recording intervals... More about our weather records

Cadillac Weather History for the Previous 24 Hours

Scroll right to see more
 ConditionsComfort  
Time TempWeatherWind HumidityBarometerVisibility
2:55 am
Sun, Jun 23
68 °FLow clouds.6 mph94%29.59 "Hg10 mi
2:35 am68 °FLow clouds.7 mph94%29.60 "Hg10 mi
2:15 am68 °FLow clouds.6 mph94%29.61 "Hg10 mi
1:55 am68 °FMostly cloudy.7 mph94%29.61 "Hg10 mi
1:35 am68 °FPassing clouds.10 mph94%29.61 "Hg10 mi
1:15 am68 °FClear.10 mph94%29.61 "Hg10 mi
12:55 am68 °FPassing clouds.12 mph100%29.61 "Hg10 mi
12:35 am70 °FLight rain. Low clouds.15 mph94%29.60 "Hg10 mi
12:15 am70 °FLight rain. Mostly cloudy.12 mph94%29.62 "Hg9 mi
11:55 pm
Sat, Jun 22
70 °FLight rain. Mostly cloudy.12 mph94%29.66 "Hg10 mi
11:35 pm70 °FRain. Overcast.13 mph94%29.68 "Hg7 mi
11:15 pm70 °FRain. Fog.13 mph94%29.70 "Hg6 mi
10:35 pm70 °FRain. Fog.10 mph94%29.71 "Hg6 mi
10:15 pm70 °FHeavy rain. Fog.10 mph100%29.71 "Hg4 mi
9:55 pm72 °FLight rain. Low clouds.14 mph94%29.70 "Hg7 mi
9:15 pm73 °FMostly cloudy.12 mph89%29.70 "Hg10 mi
8:55 pm73 °FMore clouds than sun.12 mph89%29.72 "Hg10 mi
8:35 pm73 °FMore clouds than sun.9 mph89%29.72 "Hg10 mi
8:15 pm73 °FOvercast.10 mph89%29.72 "Hg10 mi
7:55 pm73 °FOvercast.13 mph89%29.72 "Hg10 mi
7:15 pm75 °FMostly cloudy.12 mph89%29.74 "Hg10 mi
6:55 pm75 °FMostly cloudy.13 mph83%29.75 "Hg10 mi
6:35 pm73 °FMore clouds than sun.13 mph89%29.76 "Hg10 mi
6:15 pm73 °FMore clouds than sun.14 mph89%29.76 "Hg10 mi
5:55 pm73 °FMostly cloudy.14 mph89%29.76 "Hg10 mi
5:35 pm73 °FCloudy.16 mph89%29.77 "Hg10 mi
5:15 pm72 °FLight rain. Mostly cloudy.12 mph94%29.77 "Hg7 mi
4:35 pm72 °FRain. Fog.10 mph94%29.80 "Hg2 mi
4:15 pm72 °FLight rain. Fog.9 mph94%29.82 "Hg3 mi
3:35 pm72 °FRain. Fog.13 mph94%29.84 "Hg2 mi
3:15 pm72 °FLight rain. Fog.14 mph94%29.84 "Hg4 mi
2:55 pm72 °FLight rain. Fog.9 mph94%29.85 "Hg4 mi
2:35 pm70 °FHeavy rain. Fog.5 mph100%29.86 "Hg1 mi
2:15 pm70 °FHeavy rain. Fog.3 mph94%29.87 "Hg1 mi
1:55 pm68 °FRain. Fog.3 mph100%29.88 "Hg3 mi
1:35 pm68 °FHeavy rain. Fog.5 mph94%29.89 "Hg2 mi
1:15 pm70 °FHeavy rain. Fog.5 mph94%29.90 "Hg2 mi
12:55 pm70 °FHeavy rain. Fog.6 mph94%29.91 "Hg2 mi
12:35 pm70 °FRain. Fog.2 mph94%29.90 "Hg2 mi
12:15 pm70 °FHeavy rain. Fog.2 mph100%29.93 "Hg2 mi
11:55 am72 °FLight rain. Fog.6 mph94%29.94 "Hg5 mi
11:35 am72 °FLight rain. Fog.5 mph94%29.94 "Hg7 mi
11:15 am72 °FLight rain. Fog.8 mph94%29.95 "Hg7 mi
10:55 am72 °FLight rain. Cloudy.10 mph94%29.96 "Hg10 mi
10:35 am73 °FMostly cloudy.8 mph89%29.96 "Hg10 mi
10:15 am72 °FLow clouds.8 mph94%29.97 "Hg10 mi
9:35 am72 °FCloudy.5 mph94%29.97 "Hg8 mi
8:55 am72 °FFog.6 mph94%29.99 "Hg7 mi
8:35 am72 °FFog.6 mph94%29.99 "Hg6 mi
8:15 am72 °FFog.3 mph94%29.99 "Hg4 mi
7:55 am72 °FFog.7 mph94%29.99 "Hg4 mi
7:35 am70 °FFog.7 mph100%30.00 "Hg4 mi
7:15 am72 °FFog.6 mph94%30.00 "Hg4 mi
6:55 am70 °FFog.3 mph100%30.02 "Hg4 mi
6:35 am70 °FFog.5 mph100%30.02 "Hg3 mi
6:15 am70 °FFog.5 mph100%30.01 "Hg3 mi
5:55 am70 °FFog.3 mph100%30.01 "Hg1 mi
5:35 am70 °FFog.5 mph100%30.02 "Hg2 mi
5:15 am70 °FFog.3 mph100%30.02 "Hg4 mi
4:35 am70 °FFog.1 mph94%30.04 "Hg4 mi
4:15 am70 °FFog.No wind94%30.04 "Hg3 mi
Weather by CustomWeather, © 2024

See weather overview